createdAt,value
2023-05-05T05:03:06.101Z,40.43
2023-05-05T05:04:06.152Z,39.36
2023-05-05T05:05:07.116Z,39.18
2023-05-05T05:06:06.196Z,39.09
2023-05-05T05:07:06.200Z,39.01
2023-05-05T05:08:06.145Z,38.99
2023-05-05T05:09:07.240Z,38.94
2023-05-05T05:10:07.520Z,38.88
2023-05-05T05:11:06.349Z,38.89
2023-05-05T05:12:07.272Z,38.88
2023-05-05T05:13:06.475Z,38.89
2023-05-05T05:14:06.446Z,38.86
2023-05-05T05:15:06.482Z,38.81
2023-05-05T05:16:06.473Z,38.81
2023-05-05T05:17:07.447Z,38.78
2023-05-05T05:18:07.555Z,38.76
2023-05-05T05:19:06.549Z,38.76
2023-05-05T05:20:06.740Z,38.73
2023-05-05T05:21:06.619Z,38.70
2023-05-05T05:22:06.594Z,38.68
2023-05-05T05:23:07.591Z,38.69
2023-05-05T05:24:06.707Z,38.77
2023-05-05T05:25:06.607Z,38.82
2023-05-05T05:26:07.694Z,38.89
2023-05-05T05:27:09.183Z,38.87
2023-05-05T05:28:10.691Z,38.90
2023-05-05T05:29:06.700Z,38.91
2023-05-05T05:30:06.811Z,38.93
2023-05-05T05:31:06.589Z,39.03
2023-05-05T05:32:06.754Z,39.11
2023-05-05T05:33:06.597Z,39.10
2023-05-05T05:34:07.696Z,39.17
2023-05-05T05:35:06.663Z,39.21
2023-05-05T05:36:06.644Z,39.25
2023-05-05T05:37:06.623Z,39.29
2023-05-05T05:38:06.544Z,39.34
2023-05-05T05:39:06.600Z,39.36
2023-05-05T05:40:06.908Z,39.38
2023-05-05T05:41:06.559Z,39.37
2023-05-05T05:42:06.590Z,39.29
2023-05-05T05:43:07.528Z,39.28
2023-05-05T05:44:07.507Z,39.29
2023-05-05T05:45:07.492Z,39.28
2023-05-05T05:46:09.144Z,39.28
2023-05-05T05:47:07.480Z,39.25
2023-05-05T05:48:07.627Z,39.20
2023-05-05T05:49:06.471Z,39.19
2023-05-05T05:50:07.770Z,39.13
2023-05-05T05:51:06.506Z,39.18
2023-05-05T05:52:06.534Z,39.22
2023-05-05T05:53:07.473Z,39.23
2023-05-05T05:54:06.458Z,39.18
2023-05-05T05:55:06.452Z,39.16
2023-05-05T05:56:06.455Z,39.21
2023-05-05T05:57:06.395Z,39.26
2023-05-05T05:58:06.472Z,39.31
2023-05-05T05:59:07.381Z,39.42
2023-05-05T06:00:06.720Z,39.41
2023-05-05T06:01:06.366Z,39.39
2023-05-05T06:02:07.530Z,39.40
2023-05-05T06:03:06.656Z,39.39
2023-05-05T06:04:07.717Z,39.29
2023-05-05T06:05:07.382Z,39.42
2023-05-05T06:06:06.392Z,39.44
2023-05-05T06:07:06.354Z,39.36
2023-05-05T06:08:07.419Z,39.57
2023-05-05T06:09:06.336Z,39.44
2023-05-05T06:10:22.846Z,39.55
2023-05-05T06:11:07.341Z,39.51
2023-05-05T06:12:06.382Z,39.55
2023-05-05T06:13:06.451Z,39.49
2023-05-05T06:14:07.338Z,39.54
2023-05-05T06:15:06.372Z,39.47
2023-05-05T06:16:06.306Z,39.43
2023-05-05T06:17:07.327Z,39.58
2023-05-05T07:24:21.954Z,42.88
2023-05-05T07:25:22.633Z,42.93
2023-05-05T07:26:22.624Z,42.98
2023-05-05T07:27:22.633Z,43.36
2023-05-05T07:28:21.583Z,43.18
2023-05-05T07:29:22.651Z,43.34
2023-05-05T07:30:21.713Z,43.00
2023-05-05T07:31:22.589Z,44.02
2023-05-05T07:32:22.786Z,43.96
2023-05-05T07:33:22.565Z,43.55
2023-05-05T07:34:21.623Z,43.33
2023-05-05T07:35:22.655Z,44.41
2023-05-05T07:36:22.635Z,43.89
2023-05-05T07:37:22.616Z,43.55
2023-05-05T07:38:21.614Z,43.53
2023-05-05T07:39:21.579Z,43.67
2023-05-05T07:40:21.727Z,43.12
2023-05-05T07:41:21.553Z,43.21
2023-05-05T07:42:22.589Z,42.91
2023-05-05T07:43:22.584Z,42.72
2023-05-05T07:44:21.539Z,42.48
2023-05-05T07:45:21.545Z,42.40
2023-05-05T07:46:22.532Z,42.40
2023-05-05T07:47:21.628Z,42.34
2023-05-05T07:48:21.825Z,42.26
2023-05-05T07:49:22.440Z,42.23
2023-05-05T07:50:22.591Z,42.11
2023-05-05T07:51:21.513Z,42.20
2023-05-05T07:52:29.977Z,42.00
2023-05-05T07:53:22.823Z,42.07
2023-05-05T07:54:22.399Z,41.89
2023-05-05T07:55:21.388Z,41.81
2023-05-05T07:56:22.536Z,41.77
2023-05-05T07:57:22.405Z,41.63
2023-05-05T07:58:21.400Z,41.58
2023-05-05T07:59:21.432Z,41.65
2023-05-05T08:00:21.425Z,41.53
2023-05-05T08:01:21.356Z,41.55
2023-05-05T08:02:22.502Z,41.57
2023-05-05T08:03:22.690Z,41.58
2023-05-05T08:04:21.615Z,41.51
2023-05-05T08:05:21.516Z,41.56
2023-05-05T08:06:21.558Z,41.62
2023-05-05T08:07:21.588Z,41.62
2023-05-05T08:08:22.681Z,41.61
2023-05-05T08:09:21.618Z,42.07
2023-05-05T08:10:21.651Z,41.77
2023-05-05T08:11:22.652Z,41.70
2023-05-05T08:12:21.689Z,41.88
2023-05-05T08:13:21.704Z,41.72
2023-05-05T08:14:22.726Z,41.60
2023-05-05T08:15:22.780Z,41.43
2023-05-05T08:16:22.893Z,41.71
2023-05-05T08:17:22.815Z,41.96
2023-05-05T08:18:22.824Z,41.76
2023-05-05T08:19:28.806Z,42.08
2023-05-05T08:20:22.844Z,42.14
2023-05-05T08:21:21.828Z,41.93
2023-05-05T08:22:22.853Z,42.23
2023-05-05T08:23:21.924Z,41.89
2023-05-05T08:24:21.818Z,41.85
2023-05-05T08:25:22.799Z,41.96
2023-05-05T08:26:22.867Z,42.14
2023-05-05T08:27:22.792Z,41.95
2023-05-05T08:28:21.967Z,41.88
2023-05-05T08:29:21.817Z,41.83
2023-05-05T08:30:21.802Z,41.87
2023-05-05T08:31:22.891Z,41.80
2023-05-05T08:32:22.831Z,41.93
2023-05-05T08:33:21.763Z,41.90
2023-05-05T08:34:22.763Z,41.90
2023-05-05T08:35:22.791Z,41.91
2023-05-05T08:36:21.795Z,41.95
2023-05-05T08:37:21.787Z,41.65
2023-05-05T08:38:21.784Z,41.47
2023-05-05T08:39:21.713Z,41.31
2023-05-05T08:40:21.716Z,41.17
2023-05-05T08:41:22.707Z,41.12
2023-05-05T08:42:35.616Z,40.43
2023-05-05T08:43:22.813Z,40.52
2023-05-05T08:44:21.851Z,40.34
2023-05-05T08:45:21.737Z,40.72
2023-05-05T08:46:21.690Z,40.71
2023-05-05T08:47:22.708Z,40.33
2023-05-05T08:48:22.711Z,40.29
2023-05-05T08:49:22.713Z,40.29
2023-05-05T08:50:21.652Z,40.43
2023-05-05T08:51:24.375Z,40.46
2023-05-05T08:52:22.694Z,40.50
2023-05-05T08:53:22.692Z,40.57
2023-05-05T08:54:22.654Z,40.46
2023-05-05T08:55:21.685Z,40.65
2023-05-05T08:56:21.681Z,40.92
2023-05-05T08:57:22.614Z,41.20
2023-05-05T08:58:21.838Z,41.43
2023-05-05T08:59:21.594Z,41.51
2023-05-05T09:00:22.919Z,41.49
2023-05-05T09:01:21.694Z,41.49
2023-05-05T09:02:21.697Z,41.51
2023-05-05T09:03:21.657Z,41.71
2023-05-05T09:04:21.562Z,41.65
2023-05-05T09:05:21.612Z,42.07
2023-05-05T09:06:21.552Z,42.58
2023-05-05T09:07:21.533Z,42.11
2023-05-05T09:08:22.615Z,41.98
2023-05-05T09:09:21.589Z,41.89
2023-05-05T09:10:21.605Z,41.75
2023-05-05T09:11:21.532Z,41.90
2023-05-05T09:12:21.568Z,41.95
2023-05-05T09:13:26.582Z,42.32
2023-05-05T09:14:22.570Z,42.23
2023-05-05T09:15:21.484Z,42.36
2023-05-05T09:16:22.655Z,42.25
2023-05-05T09:17:21.476Z,42.41
2023-05-05T09:18:22.544Z,42.32
2023-05-05T09:19:21.475Z,42.60
2023-05-05T09:20:21.523Z,42.64
2023-05-05T09:21:21.495Z,42.62
2023-05-05T09:22:22.466Z,42.73
2023-05-05T09:23:22.561Z,42.70
2023-05-05T09:24:21.530Z,42.81
2023-05-05T09:25:22.610Z,42.75
2023-05-05T09:26:21.612Z,42.71
2023-05-05T09:27:21.681Z,42.89
2023-05-05T09:28:21.742Z,42.98
2023-05-05T09:29:21.756Z,42.94
2023-05-05T09:30:22.866Z,42.89
2023-05-05T09:31:21.927Z,42.65
2023-05-05T09:32:21.976Z,42.51
2023-05-05T09:33:21.928Z,42.39
2023-05-05T09:34:23.072Z,42.51
2023-05-05T09:35:22.129Z,42.84
2023-05-05T09:36:22.149Z,42.47
2023-05-05T09:37:22.107Z,42.51
2023-05-05T09:38:23.256Z,42.70
2023-05-05T09:39:23.205Z,42.28
2023-05-05T09:40:22.334Z,42.02
2023-05-05T09:41:22.358Z,41.83
2023-05-05T09:42:22.364Z,41.81
2023-05-05T09:43:23.469Z,41.69
2023-05-05T09:44:22.501Z,42.08
2023-05-05T09:45:22.619Z,41.81
2023-05-05T09:46:22.751Z,41.72
2023-05-05T09:47:29.738Z,41.47
2023-05-05T09:48:23.716Z,41.08
2023-05-05T09:49:22.886Z,40.71
2023-05-05T09:50:22.587Z,40.41
2023-05-05T09:51:22.574Z,40.45
2023-05-05T09:52:22.559Z,40.21
2023-05-05T09:53:23.591Z,40.16
2023-05-05T09:54:23.900Z,40.17
2023-05-05T09:55:22.606Z,40.54
2023-05-05T09:56:23.583Z,40.87
2023-05-05T09:57:22.580Z,40.95
2023-05-05T09:58:23.591Z,40.91
2023-05-05T09:59:22.577Z,40.87
2023-05-05T10:00:22.591Z,40.83
2023-05-05T10:01:22.523Z,40.93
2023-05-05T10:02:23.537Z,41.07
2023-05-05T10:03:22.482Z,41.15
2023-05-05T10:04:22.720Z,41.08
2023-05-05T10:05:22.509Z,40.96
2023-05-05T10:06:22.505Z,40.78
2023-05-05T10:07:22.544Z,40.96
2023-05-05T10:08:22.449Z,40.96
2023-05-05T10:09:23.511Z,40.97
2023-05-05T10:10:22.449Z,41.04
2023-05-05T10:11:22.442Z,41.34
2023-05-05T10:12:23.479Z,41.50
2023-05-05T10:13:22.423Z,41.59
2023-05-05T10:14:23.423Z,41.65
2023-05-05T10:15:23.423Z,41.71
2023-05-05T10:16:23.629Z,41.72
2023-05-05T10:17:23.497Z,41.72
2023-05-05T10:18:23.640Z,41.91
2023-05-05T10:19:22.672Z,42.21
2023-05-05T10:20:22.597Z,42.23
2023-05-05T10:21:22.606Z,42.06
2023-05-05T10:22:22.584Z,42.13
2023-05-05T10:23:22.614Z,42.09
2023-05-05T10:24:22.647Z,42.33
2023-05-05T10:25:22.620Z,42.41
2023-05-05T10:26:22.668Z,42.63
2023-05-05T10:27:22.672Z,42.45
2023-05-05T10:28:22.832Z,42.60
2023-05-05T10:29:22.657Z,42.65
2023-05-05T10:30:23.675Z,42.66
2023-05-05T10:31:26.560Z,43.00
2023-05-05T10:32:50.180Z,42.71
2023-05-05T10:34:22.696Z,42.57
2023-05-05T10:35:22.690Z,42.60
2023-05-05T10:36:23.832Z,42.62
2023-05-05T10:37:22.668Z,42.93
2023-05-05T10:38:24.725Z,42.77
2023-05-05T10:39:23.570Z,42.65
2023-05-05T10:40:22.608Z,42.55
2023-05-05T10:41:23.559Z,42.69
2023-05-05T10:42:23.628Z,42.63
2023-05-05T10:43:23.577Z,42.45
2023-05-05T10:44:23.891Z,42.29
2023-05-05T10:45:22.711Z,42.47
2023-05-05T10:46:22.690Z,42.31
2023-05-05T10:47:22.585Z,42.59
2023-05-05T10:48:22.635Z,42.69
2023-05-05T10:49:22.588Z,42.92
2023-05-05T10:50:22.563Z,42.93
2023-05-05T10:51:35.385Z,43.07
2023-05-05T10:52:23.668Z,43.38
2023-05-05T10:53:22.533Z,43.33
2023-05-05T10:54:22.622Z,42.98
2023-05-05T10:55:23.479Z,43.10
2023-05-05T10:56:23.493Z,43.13
2023-05-05T10:57:22.496Z,43.24
2023-05-05T10:58:22.462Z,42.98
2023-05-05T10:59:22.433Z,43.38
2023-05-05T11:00:22.459Z,43.65
2023-05-05T11:01:23.529Z,43.31
2023-05-05T11:02:23.577Z,43.42
2023-05-05T11:03:22.658Z,43.20
2023-05-05T11:04:22.433Z,43.11
2023-05-05T11:05:22.485Z,43.05
2023-05-05T11:06:22.502Z,42.69
2023-05-05T11:07:22.411Z,42.61
2023-05-05T11:08:23.550Z,42.08
2023-05-05T11:09:23.381Z,42.30
2023-05-05T11:10:22.377Z,42.43
2023-05-05T11:11:22.387Z,42.37
2023-05-05T11:12:22.401Z,42.41
2023-05-05T11:13:22.494Z,42.33
2023-05-05T11:14:23.349Z,42.33
2023-05-05T11:15:22.447Z,42.51
2023-05-05T11:16:22.497Z,42.57
2023-05-05T11:17:23.322Z,42.31
2023-05-05T11:18:22.299Z,42.21
2023-05-05T11:19:23.372Z,42.27
2023-05-05T11:20:23.389Z,42.38
2023-05-05T11:21:23.379Z,42.59
2023-05-05T11:22:22.348Z,42.54
2023-05-05T11:23:22.358Z,42.34
2023-05-05T11:24:23.369Z,42.42
2023-05-05T11:25:23.485Z,42.24
2023-05-05T11:26:23.300Z,42.36
2023-05-05T11:27:23.283Z,42.29
2023-05-05T11:28:22.300Z,42.18
2023-05-05T11:29:22.275Z,42.08
2023-05-05T11:30:22.284Z,42.20
2023-05-05T11:31:22.332Z,42.30
2023-05-05T11:32:22.231Z,42.29
2023-05-05T11:33:22.266Z,42.21
2023-05-05T11:34:22.233Z,42.20
2023-05-05T11:35:22.258Z,42.16
2023-05-05T11:36:22.238Z,42.04
2023-05-05T11:37:22.283Z,41.99
2023-05-05T11:38:23.183Z,42.05
2023-05-05T11:39:23.206Z,42.05
2023-05-05T11:40:22.297Z,42.03
2023-05-05T11:41:23.226Z,42.04
2023-05-05T11:42:23.211Z,42.08
2023-05-05T11:43:22.224Z,42.05
2023-05-05T11:44:22.191Z,42.10
2023-05-05T11:45:22.221Z,42.11
2023-05-05T11:46:22.197Z,42.23
2023-05-05T11:47:22.151Z,42.25
2023-05-05T11:48:22.112Z,42.22
2023-05-05T11:49:23.183Z,42.24
2023-05-05T11:50:22.101Z,42.27
2023-05-05T11:51:22.114Z,42.26
2023-05-05T11:52:22.092Z,42.28
2023-05-05T11:53:22.124Z,42.26
2023-05-05T11:54:22.146Z,42.35
2023-05-05T11:55:23.184Z,42.41
2023-05-05T11:56:23.464Z,42.38
2023-05-05T11:57:22.064Z,42.37
2023-05-05T11:58:23.129Z,42.37
2023-05-05T11:59:22.180Z,42.41
2023-05-05T12:00:22.163Z,42.44
2023-05-05T12:01:22.092Z,42.43
2023-05-05T12:02:22.134Z,42.42
2023-05-05T12:03:22.171Z,42.43
2023-05-05T12:04:22.140Z,42.43
2023-05-05T12:05:22.010Z,42.49
2023-05-05T12:06:22.013Z,42.46
2023-05-05T12:07:22.015Z,42.42
2023-05-05T12:08:22.025Z,42.47
2023-05-05T12:09:21.981Z,42.47
2023-05-05T12:10:22.050Z,42.45
2023-05-05T12:11:21.958Z,42.47
2023-05-05T12:12:22.044Z,42.48
2023-05-05T12:13:22.118Z,42.47
2023-05-05T12:14:21.989Z,42.50
2023-05-05T12:15:21.915Z,42.52
2023-05-05T12:16:23.014Z,42.50
2023-05-05T12:17:23.062Z,42.52
2023-05-05T12:18:21.985Z,42.47
2023-05-05T12:19:22.972Z,42.47
2023-05-05T12:20:22.008Z,42.54
2023-05-05T12:21:22.003Z,42.54
2023-05-05T12:22:22.017Z,42.51
2023-05-05T12:23:22.036Z,42.50
2023-05-05T12:24:23.053Z,42.50
2023-05-05T12:25:22.013Z,42.53
2023-05-05T12:26:22.107Z,42.50
2023-05-05T12:27:22.127Z,42.54
2023-05-05T12:28:22.305Z,42.54
2023-05-05T12:29:22.168Z,42.53
2023-05-05T12:30:23.238Z,42.56
2023-05-05T12:31:22.283Z,42.53
2023-05-05T12:32:23.268Z,42.53
2023-05-05T12:33:22.219Z,42.56
2023-05-05T12:34:23.234Z,42.54
2023-05-05T12:35:23.370Z,42.53
2023-05-05T12:36:22.377Z,42.53
2023-05-05T12:37:22.296Z,42.51
2023-05-05T12:38:23.334Z,42.54
2023-05-05T12:39:22.370Z,42.55
2023-05-05T12:40:23.509Z,42.58
2023-05-05T12:41:22.422Z,42.53
2023-05-05T12:42:22.594Z,42.52
2023-05-05T12:43:22.546Z,42.54
2023-05-05T12:44:22.835Z,42.51
2023-05-05T12:45:23.956Z,42.52
2023-05-05T12:46:23.596Z,42.54
2023-05-05T12:47:23.638Z,42.53
2023-05-05T12:48:22.641Z,42.52
2023-05-05T12:49:23.650Z,42.56
2023-05-05T12:50:22.759Z,42.54
2023-05-05T12:51:22.696Z,42.55
2023-05-05T12:52:22.806Z,42.55
2023-05-05T12:53:22.757Z,42.52
2023-05-05T12:54:23.843Z,42.55
2023-05-05T12:55:22.869Z,42.51
2023-05-05T12:56:23.870Z,42.50
2023-05-05T12:57:23.897Z,42.52
2023-05-05T12:58:22.868Z,42.51
2023-05-05T12:59:22.997Z,42.51
2023-05-05T13:00:23.096Z,42.49
2023-05-05T13:01:24.072Z,42.49
2023-05-05T13:02:23.096Z,42.49
2023-05-05T13:03:24.121Z,42.48
2023-05-05T13:04:24.071Z,42.50
2023-05-05T13:05:23.071Z,42.48
2023-05-05T13:06:23.162Z,42.50
2023-05-05T13:07:23.181Z,42.45
2023-05-05T13:08:23.201Z,42.45
2023-05-05T13:09:24.229Z,42.49
2023-05-05T13:10:23.300Z,42.44
2023-05-05T13:11:23.266Z,42.45
2023-05-05T13:12:25.133Z,42.41
2023-05-05T13:13:23.313Z,42.42
2023-05-05T13:14:23.278Z,42.44
2023-05-05T13:15:23.336Z,42.43
2023-05-05T13:16:24.526Z,42.40
2023-05-05T13:17:23.382Z,42.38
2023-05-05T13:18:23.473Z,42.38
2023-05-05T13:19:23.428Z,42.37
2023-05-05T13:20:23.491Z,42.37
2023-05-05T13:21:24.552Z,42.37
2023-05-05T13:22:23.573Z,42.32
2023-05-05T13:23:25.730Z,42.32
2023-05-05T13:24:31.637Z,42.32
2023-05-05T13:25:24.639Z,42.32
2023-05-05T13:26:24.522Z,42.32
2023-05-05T13:27:24.607Z,42.34
2023-05-05T13:28:23.577Z,42.33
2023-05-05T13:29:28.355Z,42.29
2023-05-05T13:30:24.499Z,42.31
2023-05-05T13:31:23.619Z,42.28
2023-05-05T13:32:23.723Z,42.26
2023-05-05T13:33:24.486Z,42.27
2023-05-05T13:34:23.561Z,42.22
2023-05-05T13:35:24.543Z,42.26
2023-05-05T13:36:23.602Z,42.25
2023-05-05T13:37:23.511Z,42.25
2023-05-05T13:38:23.516Z,42.23
2023-05-05T13:39:24.442Z,42.22
2023-05-05T13:40:25.921Z,42.23
2023-05-05T13:41:24.764Z,42.19
2023-05-05T13:42:23.737Z,42.21
2023-05-05T13:43:23.766Z,42.21
2023-05-05T13:44:24.824Z,42.17
2023-05-05T13:45:23.747Z,42.16
2023-05-05T13:46:24.790Z,42.17
2023-05-05T13:47:23.969Z,42.14
2023-05-05T13:48:24.956Z,42.13
2023-05-05T13:49:23.950Z,42.11
2023-05-05T13:50:23.936Z,42.10
2023-05-05T13:51:23.952Z,42.10
2023-05-05T13:52:25.031Z,42.07
2023-05-05T13:53:25.065Z,42.09
2023-05-05T13:54:24.012Z,42.08
2023-05-05T13:55:24.037Z,42.07
2023-05-05T13:56:24.176Z,42.06
2023-05-05T13:57:24.116Z,42.02
2023-05-05T13:58:24.230Z,42.03
2023-05-05T13:59:24.229Z,42.02
2023-05-05T14:00:25.296Z,41.97
2023-05-05T14:01:24.433Z,42.00
2023-05-05T14:02:25.445Z,41.96
2023-05-05T14:03:24.287Z,41.98
2023-05-05T14:04:25.640Z,41.98
2023-05-05T14:05:24.303Z,41.94
2023-05-05T14:06:24.338Z,41.92
2023-05-05T14:07:25.421Z,41.91
2023-05-05T14:08:25.473Z,41.91
2023-05-05T14:09:24.422Z,41.88
2023-05-05T14:10:24.500Z,41.86
2023-05-05T14:11:24.554Z,41.86
2023-05-05T14:12:24.506Z,41.85
2023-05-05T14:13:24.593Z,41.86
2023-05-05T14:14:24.505Z,41.82
2023-05-05T14:15:24.551Z,41.82
2023-05-05T14:16:25.653Z,41.81
2023-05-05T14:17:25.593Z,41.81
2023-05-05T14:18:25.646Z,41.78
2023-05-05T14:19:24.700Z,41.79
2023-05-05T14:20:24.817Z,41.77
2023-05-05T14:21:24.768Z,41.76
2023-05-05T14:22:24.688Z,41.73
2023-05-05T14:23:25.749Z,41.75
2023-05-05T14:24:24.788Z,41.74
2023-05-05T14:25:24.829Z,41.72
2023-05-05T14:26:24.771Z,41.71
2023-05-05T14:27:25.794Z,41.70
2023-05-05T14:28:24.912Z,41.70
2023-05-05T14:29:25.851Z,41.70
2023-05-05T14:30:25.974Z,41.66
2023-05-05T14:31:25.001Z,41.67
2023-05-05T14:32:24.978Z,41.64
2023-05-05T14:33:25.002Z,41.62
2023-05-05T14:34:25.933Z,41.60
2023-05-05T14:35:25.052Z,41.61
2023-05-05T14:36:25.294Z,41.60
2023-05-05T14:37:26.058Z,41.54
2023-05-05T14:38:25.106Z,41.53
2023-05-05T14:39:25.052Z,41.53
2023-05-05T14:40:26.111Z,41.53
2023-05-05T14:41:25.121Z,41.54
2023-05-05T14:42:25.098Z,41.53
2023-05-05T14:43:25.122Z,41.53
2023-05-05T14:44:25.167Z,41.50
2023-05-05T14:45:25.248Z,41.49
2023-05-05T14:46:25.347Z,41.50
2023-05-05T14:47:25.310Z,41.50
2023-05-05T14:48:25.245Z,41.47
2023-05-05T14:49:26.299Z,41.48
2023-05-05T14:50:25.312Z,41.49
2023-05-05T14:51:25.379Z,41.49
2023-05-05T14:52:25.457Z,41.46
2023-05-05T14:53:25.347Z,41.49
2023-05-05T14:54:28.764Z,41.47
2023-05-05T14:55:26.402Z,41.47
2023-05-05T14:56:25.333Z,41.48
2023-05-05T14:57:26.438Z,41.45
2023-05-05T14:58:25.309Z,41.44
2023-05-05T14:59:25.388Z,41.45
2023-05-05T15:00:26.300Z,41.42
2023-05-05T15:01:26.439Z,41.40
2023-05-05T15:02:25.349Z,41.40
2023-05-05T15:03:25.430Z,41.39
2023-05-05T15:04:25.326Z,41.42
2023-05-05T15:05:25.341Z,41.44
2023-05-05T15:06:25.345Z,41.40
2023-05-05T15:07:25.277Z,41.41
2023-05-05T15:08:25.329Z,41.39
2023-05-05T15:09:26.295Z,41.41
2023-05-05T15:10:25.229Z,41.38
2023-05-05T15:11:25.302Z,41.38
2023-05-05T15:12:25.298Z,41.35
2023-05-05T15:13:26.202Z,41.37
2023-05-05T15:14:26.208Z,41.35
2023-05-05T15:15:26.188Z,41.38
2023-05-05T15:16:25.289Z,41.38
2023-05-05T15:17:25.319Z,41.37
2023-05-05T15:18:25.166Z,41.37
2023-05-05T15:19:26.157Z,41.35
2023-05-05T15:20:26.217Z,41.35
2023-05-05T15:21:25.151Z,41.35
2023-05-05T15:22:26.203Z,41.34
2023-05-05T15:23:25.139Z,41.36
2023-05-05T15:24:25.236Z,41.35
2023-05-05T15:25:26.139Z,41.38
2023-05-05T15:26:25.217Z,41.34
2023-05-05T15:27:25.169Z,41.35
2023-05-05T15:28:25.189Z,41.30
2023-05-05T15:29:25.174Z,41.32
